createdAt,value
2018-05-12T00:02:44.161Z,20.11
2018-05-12T00:08:45.008Z,19.17
2018-05-12T00:12:45.722Z,17.3
2018-05-12T00:18:46.395Z,19.3
2018-05-12T00:22:47.228Z,18.52
2018-05-12T00:28:48.014Z,18.96
2018-05-12T00:34:48.738Z,19.58
2018-05-12T00:38:49.480Z,17.98
2018-05-12T00:44:50.196Z,18.87
2018-05-12T00:48:50.905Z,18.28
2018-05-12T00:50:51.643Z,21.17
2018-05-12T00:54:52.386Z,19.56
2018-05-12T01:00:53.089Z,19.24
2018-05-12T01:04:53.843Z,18.38
2018-05-12T01:10:54.574Z,20.53
2018-05-12T01:16:55.316Z,22.37
2018-05-12T01:20:56.025Z,21.23
2018-05-12T01:26:56.704Z,17.03
2018-05-12T01:30:57.330Z,19.37
2018-05-12T01:32:58.002Z,18.69
2018-05-12T01:36:58.732Z,19.61
2018-05-12T01:42:59.404Z,18.45
2018-05-12T01:47:00.117Z,19.44
2018-05-12T01:53:00.852Z,18.21
2018-05-12T01:59:01.660Z,18.66
2018-05-12T02:03:02.411Z,20.22
2018-05-12T02:09:03.182Z,17.33
2018-05-12T02:13:03.961Z,17.06
2018-05-12T02:19:04.637Z,17.62
2018-05-12T02:25:05.415Z,17.15
2018-05-12T02:29:06.123Z,17.94
2018-05-12T02:35:06.806Z,18.99
2018-05-12T02:39:07.560Z,21.1
2018-05-12T02:41:08.200Z,20.4
2018-05-12T02:45:09.298Z,19.6
2018-05-12T02:51:10.045Z,19.16
2018-05-12T02:55:10.747Z,20.61
2018-05-12T03:01:11.445Z,19.97
2018-05-12T03:07:12.208Z,21.15
2018-05-12T03:11:12.936Z,22.56
2018-05-12T03:17:13.624Z,21.78
2018-05-12T03:21:14.342Z,22.15
2018-05-12T03:23:15.037Z,20.48
2018-05-12T03:27:15.906Z,22.43
2018-05-12T03:33:16.695Z,22.55
2018-05-12T03:37:17.378Z,21.98
2018-05-12T03:43:18.293Z,20.54
2018-05-12T03:47:19.096Z,22.59
2018-05-12T03:49:19.894Z,21.81
2018-05-12T03:53:20.597Z,23.76
2018-05-12T03:59:21.342Z,25.17
2018-05-12T04:03:22.076Z,22.6
2018-05-12T04:09:22.873Z,22.64
2018-05-12T04:15:24.361Z,22.21
2018-05-12T04:19:25.143Z,21.89
2018-05-12T04:25:25.927Z,25.34
2018-05-12T04:29:26.801Z,25
2018-05-12T04:31:27.602Z,27.57
2018-05-12T04:35:28.331Z,26.34
2018-05-12T04:41:29.144Z,28.14
2018-05-12T04:45:30.404Z,25.69
2018-05-12T04:51:31.183Z,26.61
2018-05-12T04:57:31.946Z,25.1
2018-05-12T05:01:32.670Z,24.35
2018-05-12T05:07:33.502Z,26.18
2018-05-12T05:11:34.280Z,26.8
2018-05-12T05:13:34.932Z,27.15
2018-05-12T05:17:35.700Z,26.02
2018-05-12T05:23:36.509Z,25.35
2018-05-12T05:27:37.337Z,23.8
2018-05-12T05:33:38.147Z,23.35
2018-05-12T05:37:38.858Z,24.8
2018-05-12T05:39:39.654Z,23.19
2018-05-12T05:43:40.405Z,23.16
2018-05-12T05:49:41.157Z,25.89
2018-05-12T05:53:41.832Z,26.09
2018-05-12T05:59:42.531Z,26.29
2018-05-12T06:05:43.559Z,30.45
2018-05-12T06:09:44.403Z,27.81
2018-05-12T06:15:45.258Z,30.45
2018-05-12T06:19:46.034Z,30.04
2018-05-12T06:21:46.767Z,32.37
2018-05-12T06:25:47.597Z,32.15
2018-05-12T06:31:48.292Z,29.03
2018-05-12T06:35:49.108Z,27.82
2018-05-12T06:41:49.960Z,35.04
2018-05-12T06:47:50.664Z,32.56
2018-05-12T06:51:51.618Z,33.41
2018-05-12T06:57:53.269Z,28.49
2018-05-12T07:01:54.030Z,29.96
2018-05-12T07:07:54.868Z,23.8
2018-05-12T07:13:55.944Z,24.46
2018-05-12T07:17:56.640Z,23.92
2018-05-12T07:23:57.466Z,23.38
2018-05-12T07:27:58.194Z,22.6
2018-05-12T07:29:59.066Z,24.63
2018-05-12T07:33:59.877Z,25.46
2018-05-12T07:40:00.627Z,23.26
2018-05-12T07:44:01.559Z,24.26
2018-05-12T07:50:03.123Z,25.82
2018-05-12T07:56:03.886Z,24.68
2018-05-12T08:00:04.689Z,25.96
2018-05-12T08:06:05.534Z,29.6
2018-05-12T08:10:06.318Z,28.07
2018-05-12T08:12:06.989Z,27.25
2018-05-12T08:16:07.707Z,27.2
2018-05-12T08:22:08.379Z,25.7
2018-05-12T08:26:09.119Z,24.25
2018-05-12T08:32:10.006Z,25.59
2018-05-12T08:38:10.757Z,24.92
2018-05-12T08:42:11.437Z,24.91
2018-05-12T08:48:12.261Z,27.62
2018-05-12T08:52:12.912Z,27.59
2018-05-12T08:54:13.728Z,26.72
2018-05-12T08:58:14.680Z,28.32
2018-05-12T09:04:15.371Z,23.99
2018-05-12T09:08:16.111Z,20.89
2018-05-12T09:14:16.997Z,17.66
2018-05-12T09:18:17.903Z,17.96
2018-05-12T09:20:18.635Z,17.52
2018-05-12T09:24:19.355Z,17.75
2018-05-12T09:30:20.238Z,19.18
2018-05-12T09:34:21.129Z,18.29
2018-05-12T09:40:21.802Z,17.48
2018-05-12T09:46:22.550Z,16.94
2018-05-12T09:50:23.326Z,17.71
2018-05-12T09:56:23.982Z,17.32
2018-05-12T10:00:25.313Z,17.48
2018-05-12T10:02:25.970Z,18.05
2018-05-12T10:06:26.675Z,18.89
2018-05-12T10:12:27.448Z,19.58
2018-05-12T10:16:28.123Z,21.46
2018-05-12T10:22:28.919Z,19.63
2018-05-12T10:26:29.695Z,17.69
2018-05-12T10:28:30.357Z,18.36
2018-05-12T10:32:31.078Z,17.38
2018-05-12T10:38:31.893Z,19.47
2018-05-12T10:42:32.729Z,18.8
2018-05-12T10:48:33.595Z,17.94
2018-05-12T10:54:34.266Z,19.07
2018-05-12T10:58:35.093Z,19.34
2018-05-12T11:04:35.908Z,18.34
2018-05-12T11:08:36.669Z,17.5
2018-05-12T11:15:38.049Z,16.62
2018-05-12T11:19:38.848Z,17.12
2018-05-12T11:25:39.684Z,12.9
2018-05-12T11:29:40.840Z,12.78
2018-05-12T11:31:41.655Z,12.95
2018-05-12T11:35:42.549Z,13.45
2018-05-12T11:41:46.514Z,14.07
2018-05-12T11:45:47.347Z,14.36
2018-05-12T11:51:48.250Z,15.89
2018-05-12T11:55:48.901Z,15.19
2018-05-12T11:57:50.759Z,15.46
2018-05-12T12:01:51.462Z,14.6
2018-05-12T12:07:53.011Z,14.38
2018-05-12T12:11:54.119Z,14.57
2018-05-12T12:17:55.012Z,15.17
2018-05-12T12:23:55.751Z,15.54
2018-05-12T12:27:56.519Z,13.67
2018-05-12T12:33:57.317Z,14.82
2018-05-12T12:37:58.144Z,13.52
2018-05-12T12:43:58.880Z,13.46
2018-05-12T12:49:59.656Z,13.67
2018-05-12T12:54:00.450Z,12.99
2018-05-12T13:00:01.146Z,14.9
2018-05-12T13:04:01.970Z,13.56
2018-05-12T13:06:02.908Z,13.36
2018-05-12T13:10:03.521Z,13.33
2018-05-12T13:16:04.233Z,13.15
2018-05-12T13:20:04.995Z,13.11
2018-05-12T13:26:05.716Z,12.4
2018-05-12T13:32:06.835Z,13.28
2018-05-12T13:36:07.546Z,12.56
2018-05-12T13:42:08.310Z,11.7
2018-05-12T13:46:09.039Z,11.31
2018-05-12T13:48:09.710Z,11.6
2018-05-12T13:52:10.448Z,11.29
2018-05-12T13:58:11.251Z,11.71
2018-05-12T14:02:11.977Z,11.03
2018-05-12T14:08:12.770Z,11.85
2018-05-12T14:14:13.532Z,10.74
2018-05-12T14:18:14.293Z,10.96
2018-05-12T14:24:15.050Z,11.44
2018-05-12T14:28:15.745Z,11.61
2018-05-12T14:34:16.456Z,10.73
2018-05-12T14:40:17.220Z,10.91
2018-05-12T14:44:17.926Z,10.56
2018-05-12T14:50:18.763Z,11.09
2018-05-12T14:54:19.559Z,10.8
2018-05-12T14:56:20.278Z,11.1
2018-05-12T15:00:21.478Z,10.82
2018-05-12T15:06:22.329Z,11.13
2018-05-12T15:10:23.144Z,11.3
2018-05-12T15:16:23.914Z,10.43
2018-05-12T15:22:24.669Z,11.42
2018-05-12T15:26:25.471Z,9.46
2018-05-12T15:32:26.246Z,11.74
2018-05-12T15:36:26.922Z,10.48
2018-05-12T15:38:27.776Z,10.03
2018-05-12T15:42:28.623Z,10.92
2018-05-12T15:48:29.406Z,11.17
2018-05-12T15:52:30.163Z,10.93
2018-05-12T15:58:30.988Z,12.52
2018-05-12T16:02:31.881Z,10.97
2018-05-12T16:04:32.596Z,11.54
2018-05-12T16:08:33.434Z,10.79
2018-05-12T16:14:34.232Z,11.29
2018-05-12T16:18:34.977Z,10.79
2018-05-12T16:24:35.758Z,10.89
2018-05-12T16:30:36.542Z,10.25
2018-05-12T16:34:37.189Z,10.16
2018-05-12T16:40:38.129Z,12.45
2018-05-12T16:44:39.598Z,13.51
2018-05-12T16:46:40.467Z,10.47
2018-05-12T16:50:41.339Z,12.14
2018-05-12T16:56:42.032Z,12.49
2018-05-12T17:00:42.900Z,10.33
2018-05-12T17:06:43.800Z,11.93
2018-05-12T17:12:44.561Z,10.61
2018-05-12T17:16:45.306Z,10.13
2018-05-12T17:22:46.127Z,12.88
2018-05-12T17:26:46.869Z,11.12
2018-05-12T17:32:48.133Z,13.47
2018-05-12T17:38:49.049Z,12.3
2018-05-12T17:42:49.822Z,10.79
2018-05-12T17:48:50.662Z,14.44
2018-05-12T17:52:51.345Z,13.51
2018-05-12T17:54:52.222Z,14.75
2018-05-12T17:58:52.988Z,14.05
2018-05-12T18:04:53.717Z,11.58
2018-05-12T18:08:54.528Z,11.76
2018-05-12T18:14:55.227Z,17.34
2018-05-12T18:20:56.058Z,18.84
2018-05-12T18:24:56.943Z,17.51
2018-05-12T18:30:57.658Z,17.4
2018-05-12T18:34:58.421Z,18
2018-05-12T18:36:59.306Z,17.95
2018-05-12T18:41:00.293Z,15.41
2018-05-12T18:47:01.115Z,18.05
2018-05-12T18:51:01.894Z,18.5
2018-05-12T18:57:02.656Z,15.46
2018-05-12T19:01:03.505Z,15.17
2018-05-12T19:03:04.231Z,15.16
2018-05-12T19:07:04.929Z,15.57
2018-05-12T19:13:05.685Z,15.49
2018-05-12T19:17:06.396Z,17.14
2018-05-12T19:23:07.114Z,15.29
2018-05-12T19:29:07.849Z,17.31
2018-05-12T19:33:08.646Z,19.56
2018-05-12T19:39:09.577Z,15.75
2018-05-12T19:43:10.405Z,18.21
2018-05-12T19:45:11.506Z,16.72
2018-05-12T19:49:17.038Z,20.73
2018-05-12T19:55:18.197Z,22.85
2018-05-12T19:59:19.045Z,20.45
2018-05-12T20:05:20.156Z,20.97
2018-05-12T20:09:21.050Z,17.66
2018-05-12T20:11:21.946Z,18.76
2018-05-12T20:15:23.105Z,17.86
2018-05-12T20:21:24.008Z,21.06
2018-05-12T20:25:24.731Z,20.83
2018-05-12T20:31:25.505Z,18.86
2018-05-12T20:37:26.393Z,26.03
2018-05-12T20:41:27.145Z,30.03
2018-05-12T20:47:27.987Z,19.47
2018-05-12T20:51:28.750Z,20.54
2018-05-12T20:51:28.807Z,20.54
2018-05-12T20:53:29.512Z,19.82
2018-05-12T20:57:30.294Z,17.76
2018-05-12T21:03:31.152Z,17.76
2018-05-12T21:07:31.855Z,18.32
2018-05-12T21:13:32.685Z,17.6
2018-05-12T21:17:33.437Z,18.4
2018-05-12T21:19:34.183Z,18.99
2018-05-12T21:23:34.979Z,19.19
2018-05-12T21:29:35.734Z,19.06
2018-05-12T21:33:36.455Z,19.1
2018-05-12T21:39:37.218Z,21.77
2018-05-12T21:45:38.096Z,17.65
2018-05-12T21:49:38.835Z,16.33
2018-05-12T21:55:39.750Z,19.02
2018-05-12T21:59:40.462Z,20.36
2018-05-12T22:01:41.147Z,18.31
2018-05-12T22:05:41.998Z,20.05
2018-05-12T22:11:42.807Z,18.83
2018-05-12T22:15:43.607Z,17.09
2018-05-12T22:21:44.326Z,18.92
2018-05-12T22:27:45.173Z,18.42
2018-05-12T22:31:45.890Z,22.18
2018-05-12T22:37:46.662Z,26.18
2018-05-12T22:41:47.389Z,25.76
2018-05-12T22:47:48.243Z,22.9
2018-05-12T22:53:49.010Z,24.04
2018-05-12T22:57:49.810Z,23.74
2018-05-12T23:03:50.469Z,22.69
2018-05-12T23:07:51.193Z,22.52
2018-05-12T23:09:52.040Z,21.54
2018-05-12T23:13:52.702Z,21.14
2018-05-12T23:19:53.405Z,21.62
2018-05-12T23:23:54.165Z,22.2
2018-05-12T23:29:54.934Z,25.51
2018-05-12T23:35:55.705Z,23.93
2018-05-12T23:39:56.466Z,22.4
2018-05-12T23:45:57.218Z,23.7
2018-05-12T23:49:57.931Z,23.7
2018-05-12T23:51:58.620Z,23.63
2018-05-12T23:55:59.316Z,22.75
